sensor_id;sensor_type;location;lat;lon;timestamp;pressure;altitude;pressure_sealevel;temperature;humidity
70302;BME280;57706;56.326;43.882;2023-03-02T00:00:46;99339.44;;;-4.53;73.36
70302;BME280;57706;56.326;43.882;2023-03-02T00:03:13;99331.94;;;-4.42;74.05
70302;BME280;57706;56.326;43.882;2023-03-02T00:05:43;99330.00;;;-4.38;74.07
70302;BME280;57706;56.326;43.882;2023-03-02T00:08:12;99333.78;;;-4.44;74.94
70302;BME280;57706;56.326;43.882;2023-03-02T00:10:39;99341.56;;;-4.31;74.39
70302;BME280;57706;56.326;43.882;2023-03-02T00:13:05;99341.00;;;-4.50;74.69
70302;BME280;57706;56.326;43.882;2023-03-02T00:15:31;99342.56;;;-4.48;74.95
70302;BME280;57706;56.326;43.882;2023-03-02T00:17:57;99339.63;;;-4.56;75.74
70302;BME280;57706;56.326;43.882;2023-03-02T00:20:23;99348.16;;;-4.56;76.02
70302;BME280;57706;56.326;43.882;2023-03-02T00:22:49;99348.25;;;-4.57;77.23
70302;BME280;57706;56.326;43.882;2023-03-02T00:25:16;99348.94;;;-4.70;77.21
70302;BME280;57706;56.326;43.882;2023-03-02T00:27:42;99339.22;;;-4.79;77.00
70302;BME280;57706;56.326;43.882;2023-03-02T00:30:09;99324.03;;;-4.82;77.66
70302;BME280;57706;56.326;43.882;2023-03-02T00:32:36;99326.78;;;-4.71;77.82
70302;BME280;57706;56.326;43.882;2023-03-02T00:35:03;99330.91;;;-4.68;77.42
70302;BME280;57706;56.326;43.882;2023-03-02T00:37:29;99318.91;;;-4.53;78.28
70302;BME280;57706;56.326;43.882;2023-03-02T00:39:54;99334.41;;;-4.69;77.74
70302;BME280;57706;56.326;43.882;2023-03-02T00:42:21;99324.97;;;-4.68;78.22
70302;BME280;57706;56.326;43.882;2023-03-02T00:44:47;99331.66;;;-4.66;77.59
70302;BME280;57706;56.326;43.882;2023-03-02T00:47:13;99325.34;;;-4.75;78.41
70302;BME280;57706;56.326;43.882;2023-03-02T00:49:39;99323.69;;;-4.76;78.00
70302;BME280;57706;56.326;43.882;2023-03-02T00:52:05;99335.94;;;-4.81;78.19
70302;BME280;57706;56.326;43.882;2023-03-02T00:54:30;99331.75;;;-4.67;77.68
70302;BME280;57706;56.326;43.882;2023-03-02T00:56:57;99324.41;;;-4.74;78.27
70302;BME280;57706;56.326;43.882;2023-03-02T00:59:22;99319.84;;;-4.68;78.66
70302;BME280;57706;56.326;43.882;2023-03-02T01:01:59;99317.44;;;-4.72;78.60
70302;BME280;57706;56.326;43.882;2023-03-02T01:04:36;99331.91;;;-4.71;78.29
70302;BME280;57706;56.326;43.882;2023-03-02T01:07:09;99335.78;;;-4.63;77.79
70302;BME280;57706;56.326;43.882;2023-03-02T01:09:36;99330.72;;;-4.79;78.02
70302;BME280;57706;56.326;43.882;2023-03-02T01:12:02;99352.44;;;-4.71;78.32
70302;BME280;57706;56.326;43.882;2023-03-02T01:14:28;99337.25;;;-4.74;78.65
70302;BME280;57706;56.326;43.882;2023-03-02T01:16:54;99341.06;;;-4.81;78.18
70302;BME280;57706;56.326;43.882;2023-03-02T01:19:20;99336.88;;;-4.67;78.34
70302;BME280;57706;56.326;43.882;2023-03-02T01:21:45;99341.09;;;-4.52;78.49
70302;BME280;57706;56.326;43.882;2023-03-02T01:24:11;99334.13;;;-4.50;78.80
70302;BME280;57706;56.326;43.882;2023-03-02T01:26:37;99326.97;;;-4.45;78.78
70302;BME280;57706;56.326;43.882;2023-03-02T01:29:03;99329.53;;;-4.30;79.17
70302;BME280;57706;56.326;43.882;2023-03-02T01:31:30;99333.88;;;-4.31;78.32
70302;BME280;57706;56.326;43.882;2023-03-02T01:33:56;99319.63;;;-4.36;78.86
70302;BME280;57706;56.326;43.882;2023-03-02T01:36:22;99326.81;;;-4.42;78.52
70302;BME280;57706;56.326;43.882;2023-03-02T01:38:49;99323.69;;;-4.47;78.27
70302;BME280;57706;56.326;43.882;2023-03-02T01:41:15;99326.09;;;-4.44;78.89
70302;BME280;57706;56.326;43.882;2023-03-02T01:43:42;99331.94;;;-4.42;78.81
70302;BME280;57706;56.326;43.882;2023-03-02T01:46:27;99322.59;;;-4.43;79.13
70302;BME280;57706;56.326;43.882;2023-03-02T01:49:03;99334.13;;;-4.35;79.05
70302;BME280;57706;56.326;43.882;2023-03-02T01:51:42;99335.03;;;-4.65;78.70
70302;BME280;57706;56.326;43.882;2023-03-02T01:54:12;99324.78;;;-4.65;79.33
70302;BME280;57706;56.326;43.882;2023-03-02T01:56:43;99324.50;;;-4.75;79.31
70302;BME280;57706;56.326;43.882;2023-03-02T01:59:15;99334.31;;;-4.82;79.94
70302;BME280;57706;56.326;43.882;2023-03-02T02:01:46;99327.16;;;-4.62;79.72
70302;BME280;57706;56.326;43.882;2023-03-02T02:04:15;99332.47;;;-4.65;80.14
70302;BME280;57706;56.326;43.882;2023-03-02T02:06:49;99330.09;;;-4.68;80.00
70302;BME280;57706;56.326;43.882;2023-03-02T02:09:18;99321.66;;;-4.56;79.47
70302;BME280;57706;56.326;43.882;2023-03-02T02:11:46;99310.31;;;-4.52;79.43
70302;BME280;57706;56.326;43.882;2023-03-02T02:14:12;99337.03;;;-4.71;79.40
70302;BME280;57706;56.326;43.882;2023-03-02T02:16:40;99329.00;;;-4.64;79.29
70302;BME280;57706;56.326;43.882;2023-03-02T02:19:17;99325.53;;;-4.49;79.23
70302;BME280;57706;56.326;43.882;2023-03-02T02:21:50;99325.06;;;-4.56;79.38
70302;BME280;57706;56.326;43.882;2023-03-02T02:24:21;99327.34;;;-4.80;79.34
70302;BME280;57706;56.326;43.882;2023-03-02T02:26:52;99339.88;;;-4.75;79.95
70302;BME280;57706;56.326;43.882;2023-03-02T02:29:37;99336.69;;;-4.64;80.16
70302;BME280;57706;56.326;43.882;2023-03-02T02:32:12;99328.81;;;-4.76;79.30
70302;BME280;57706;56.326;43.882;2023-03-02T02:34:46;99320.66;;;-4.53;80.35
70302;BME280;57706;56.326;43.882;2023-03-02T02:37:19;99320.75;;;-4.70;80.12
70302;BME280;57706;56.326;43.882;2023-03-02T02:39:48;99326.44;;;-4.64;80.26
70302;BME280;57706;56.326;43.882;2023-03-02T02:42:19;99320.22;;;-4.75;79.96
70302;BME280;57706;56.326;43.882;2023-03-02T02:44:46;99330.00;;;-4.52;80.11
70302;BME280;57706;56.326;43.882;2023-03-02T02:47:20;99324.78;;;-4.65;79.24
70302;BME280;57706;56.326;43.882;2023-03-02T02:49:49;99329.91;;;-4.65;78.66
70302;BME280;57706;56.326;43.882;2023-03-02T02:52:18;99317.47;;;-4.57;78.93
70302;BME280;57706;56.326;43.882;2023-03-02T02:54:48;99320.19;;;-4.46;78.41
70302;BME280;57706;56.326;43.882;2023-03-02T02:57:16;99331.66;;;-4.51;78.53
70302;BME280;57706;56.326;43.882;2023-03-02T02:59:47;99327.72;;;-4.43;78.10
70302;BME280;57706;56.326;43.882;2023-03-02T03:02:20;99329.00;;;-4.50;77.65
70302;BME280;57706;56.326;43.882;2023-03-02T03:04:47;99334.22;;;-4.37;78.22
70302;BME280;57706;56.326;43.882;2023-03-02T03:07:22;99323.88;;;-4.50;77.51
70302;BME280;57706;56.326;43.882;2023-03-02T03:10:31;99321.13;;;-4.47;77.35
70302;BME280;57706;56.326;43.882;2023-03-02T03:13:09;99327.81;;;-4.44;77.34
70302;BME280;57706;56.326;43.882;2023-03-02T03:15:35;99326.53;;;-4.51;76.25
70302;BME280;57706;56.326;43.882;2023-03-02T03:18:01;99326.44;;;-4.35;76.25
70302;BME280;57706;56.326;43.882;2023-03-02T03:20:27;99329.38;;;-4.56;75.49
70302;BME280;57706;56.326;43.882;2023-03-02T03:22:53;99337.88;;;-4.41;76.71
70302;BME280;57706;56.326;43.882;2023-03-02T03:25:23;99337.06;;;-4.42;75.92
70302;BME280;57706;56.326;43.882;2023-03-02T03:27:49;99338.91;;;-4.44;75.39
70302;BME280;57706;56.326;43.882;2023-03-02T03:30:16;99328.63;;;-4.29;75.44
70302;BME280;57706;56.326;43.882;2023-03-02T03:32:43;99331.66;;;-4.51;74.62
70302;BME280;57706;56.326;43.882;2023-03-02T03:35:09;99328.16;;;-4.50;75.46
70302;BME280;57706;56.326;43.882;2023-03-02T03:37:38;99329.19;;;-4.38;75.40
70302;BME280;57706;56.326;43.882;2023-03-02T03:40:06;99324.59;;;-4.33;75.20
70302;BME280;57706;56.326;43.882;2023-03-02T03:42:35;99332.81;;;-4.28;76.01
70302;BME280;57706;56.326;43.882;2023-03-02T03:45:03;99331.00;;;-4.26;75.93
70302;BME280;57706;56.326;43.882;2023-03-02T03:47:33;99335.03;;;-4.22;75.69
70302;BME280;57706;56.326;43.882;2023-03-02T03:49:59;99348.88;;;-4.24;75.95
70302;BME280;57706;56.326;43.882;2023-03-02T03:52:25;99342.94;;;-4.25;76.31
70302;BME280;57706;56.326;43.882;2023-03-02T03:55:06;99333.09;;;-4.04;75.68
70302;BME280;57706;56.326;43.882;2023-03-02T03:57:32;99338.88;;;-4.15;75.68
70302;BME280;57706;56.326;43.882;2023-03-02T03:59:58;99350.97;;;-4.17;76.07
70302;BME280;57706;56.326;43.882;2023-03-02T04:02:24;99342.94;;;-4.25;75.95
70302;BME280;57706;56.326;43.882;2023-03-02T04:04:50;99341.09;;;-4.23;76.39
70302;BME280;57706;56.326;43.882;2023-03-02T04:07:17;99352.81;;;-4.33;76.94
70302;BME280;57706;56.326;43.882;2023-03-02T04:09:46;99344.75;;;-4.27;75.85
70302;BME280;57706;56.326;43.882;2023-03-02T04:12:13;99347.84;;;-4.22;76.58
70302;BME280;57706;56.326;43.882;2023-03-02T04:14:48;99346.41;;;-4.26;76.91
70302;BME280;57706;56.326;43.882;2023-03-02T04:17:14;99359.22;;;-4.11;77.50
70302;BME280;57706;56.326;43.882;2023-03-02T04:19:43;99357.19;;;-4.06;76.44
70302;BME280;57706;56.326;43.882;2023-03-02T04:22:10;99367.25;;;-4.03;76.42
70302;BME280;57706;56.326;43.882;2023-03-02T04:24:36;99369.56;;;-3.98;74.82
70302;BME280;57706;56.326;43.882;2023-03-02T04:27:03;99366.53;;;-3.91;75.36
70302;BME280;57706;56.326;43.882;2023-03-02T04:29:30;99359.38;;;-3.85;74.21
70302;BME280;57706;56.326;43.882;2023-03-02T04:31:58;99368.31;;;-4.06;74.17
70302;BME280;57706;56.326;43.882;2023-03-02T04:34:25;99369.66;;;-3.85;74.19
70302;BME280;57706;56.326;43.882;2023-03-02T04:36:52;99360.00;;;-3.82;74.62
70302;BME280;57706;56.326;43.882;2023-03-02T04:39:19;99371.09;;;-3.81;74.42
70302;BME280;57706;56.326;43.882;2023-03-02T04:41:48;99382.63;;;-3.74;74.80
70302;BME280;57706;56.326;43.882;2023-03-02T04:44:15;99368.13;;;-3.61;73.75
70302;BME280;57706;56.326;43.882;2023-03-02T04:46:41;99380.63;;;-3.69;73.64
70302;BME280;57706;56.326;43.882;2023-03-02T04:49:07;99377.97;;;-3.54;74.63
70302;BME280;57706;56.326;43.882;2023-03-02T04:51:36;99387.25;;;-3.52;73.83
70302;BME280;57706;56.326;43.882;2023-03-02T04:54:06;99385.84;;;-3.43;73.80
70302;BME280;57706;56.326;43.882;2023-03-02T04:56:33;99389.97;;;-3.40;73.08
70302;BME280;57706;56.326;43.882;2023-03-02T04:58:59;99390.78;;;-3.40;73.21
70302;BME280;57706;56.326;43.882;2023-03-02T05:01:25;99393.06;;;-3.63;72.78
70302;BME280;57706;56.326;43.882;2023-03-02T05:03:51;99391.97;;;-3.58;73.43
70302;BME280;57706;56.326;43.882;2023-03-02T05:06:18;99396.28;;;-3.32;73.91
70302;BME280;57706;56.326;43.882;2023-03-02T05:08:46;99398.25;;;-3.22;72.07
70302;BME280;57706;56.326;43.882;2023-03-02T05:11:14;99402.19;;;-3.04;72.78
70302;BME280;57706;56.326;43.882;2023-03-02T05:13:53;99394.53;;;-2.91;72.79
70302;BME280;57706;56.326;43.882;2023-03-02T05:16:20;99402.13;;;-2.89;72.65
70302;BME280;57706;56.326;43.882;2023-03-02T05:18:46;99401.41;;;-2.91;72.41
70302;BME280;57706;56.326;43.882;2023-03-02T05:21:14;99411.94;;;-2.68;72.43
70302;BME280;57706;56.326;43.882;2023-03-02T05:23:40;99406.59;;;-2.65;72.24
70302;BME280;57706;56.326;43.882;2023-03-02T05:26:07;99409.16;;;-2.65;71.36
70302;BME280;57706;56.326;43.882;2023-03-02T05:28:33;99402.69;;;-2.58;72.14
70302;BME280;57706;56.326;43.882;2023-03-02T05:30:59;99415.16;;;-2.52;71.50
70302;BME280;57706;56.326;43.882;2023-03-02T05:33:26;99405.78;;;-2.53;70.95
70302;BME280;57706;56.326;43.882;2023-03-02T05:35:51;99408.25;;;-2.38;70.82
70302;BME280;57706;56.326;43.882;2023-03-02T05:38:18;99415.25;;;-2.40;69.51
70302;BME280;57706;56.326;43.882;2023-03-02T05:40:44;99413.78;;;-2.70;69.18
70302;BME280;57706;56.326;43.882;2023-03-02T05:43:14;99419.25;;;-2.62;70.89
70302;BME280;57706;56.326;43.882;2023-03-02T05:45:40;99428.63;;;-2.74;71.42
70302;BME280;57706;56.326;43.882;2023-03-02T05:48:07;99444.91;;;-3.28;73.06
70302;BME280;57706;56.326;43.882;2023-03-02T05:50:33;99450.50;;;-3.22;75.47
70302;BME280;57706;56.326;43.882;2023-03-02T05:52:59;99457.91;;;-3.17;75.20
70302;BME280;57706;56.326;43.882;2023-03-02T05:55:27;99453.97;;;-2.95;73.51
70302;BME280;57706;56.326;43.882;2023-03-02T05:57:53;99441.56;;;-2.75;71.00
70302;BME280;57706;56.326;43.882;2023-03-02T06:00:19;99446.09;;;-2.79;64.73
70302;BME280;57706;56.326;43.882;2023-03-02T06:02:45;99455.81;;;-2.05;64.64
70302;BME280;57706;56.326;43.882;2023-03-02T06:05:14;99465.59;;;-1.47;60.76
70302;BME280;57706;56.326;43.882;2023-03-02T06:07:40;99471.28;;;-1.42;57.74
70302;BME280;57706;56.326;43.882;2023-03-02T06:10:07;99466.97;;;-1.17;58.20
70302;BME280;57706;56.326;43.882;2023-03-02T06:12:35;99468.88;;;-1.32;54.43
70302;BME280;57706;56.326;43.882;2023-03-02T06:15:02;99474.38;;;-1.36;54.76
70302;BME280;57706;56.326;43.882;2023-03-02T06:17:30;99465.25;;;-1.05;52.90
70302;BME280;57706;56.326;43.882;2023-03-02T06:19:55;99464.25;;;-0.91;53.36
70302;BME280;57706;56.326;43.882;2023-03-02T06:22:21;99479.47;;;-0.99;51.26
70302;BME280;57706;56.326;43.882;2023-03-02T06:24:47;99480.84;;;-1.31;51.42
70302;BME280;57706;56.326;43.882;2023-03-02T06:27:13;99479.28;;;-1.33;50.95
70302;BME280;57706;56.326;43.882;2023-03-02T06:29:39;99477.78;;;-1.12;49.91
70302;BME280;57706;56.326;43.882;2023-03-02T06:32:05;99493.19;;;-0.74;46.56
70302;BME280;57706;56.326;43.882;2023-03-02T06:34:31;99479.47;;;-0.28;45.25
70302;BME280;57706;56.326;43.882;2023-03-02T06:36:57;99493.59;;;0.14;46.24
70302;BME280;57706;56.326;43.882;2023-03-02T06:39:22;99485.66;;;0.84;43.09
70302;BME280;57706;56.326;43.882;2023-03-02T06:41:48;99496.41;;;1.33;42.77
70302;BME280;57706;56.326;43.882;2023-03-02T06:44:16;99489.44;;;2.70;40.29
70302;BME280;57706;56.326;43.882;2023-03-02T06:46:42;99506.03;;;1.85;40.60
70302;BME280;57706;56.326;43.882;2023-03-02T06:49:09;99504.78;;;0.93;41.64
70302;BME280;57706;56.326;43.882;2023-03-02T06:51:35;99506.38;;;1.17;40.89
70302;BME280;57706;56.326;43.882;2023-03-02T06:54:01;99501.09;;;2.44;38.79
70302;BME280;57706;56.326;43.882;2023-03-02T06:56:27;99494.53;;;5.28;35.31
70302;BME280;57706;56.326;43.882;2023-03-02T06:58:53;99496.19;;;5.11;34.57
70302;BME280;57706;56.326;43.882;2023-03-02T07:01:19;99501.28;;;6.37;34.18
70302;BME280;57706;56.326;43.882;2023-03-02T07:03:45;99495.84;;;6.65;31.83
70302;BME280;57706;56.326;43.882;2023-03-02T07:06:12;99493.59;;;6.78;31.38
70302;BME280;57706;56.326;43.882;2023-03-02T07:08:38;99500.81;;;7.59;30.22
70302;BME280;57706;56.326;43.882;2023-03-02T07:11:09;99500.31;;;9.08;27.16
70302;BME280;57706;56.326;43.882;2023-03-02T07:13:36;99503.75;;;9.71;28.27
70302;BME280;57706;56.326;43.882;2023-03-02T07:16:13;99506.38;;;7.81;29.77
70302;BME280;57706;56.326;43.882;2023-03-02T07:18:40;99504.84;;;9.91;27.40
70302;BME280;57706;56.326;43.882;2023-03-02T07:21:06;99510.94;;;9.92;26.86
70302;BME280;57706;56.326;43.882;2023-03-02T07:23:32;99513.56;;;8.44;27.24
70302;BME280;57706;56.326;43.882;2023-03-02T07:25:58;99510.94;;;6.44;29.55
70302;BME280;57706;56.326;43.882;2023-03-02T07:28:24;99519.72;;;4.07;33.89
70302;BME280;57706;56.326;43.882;2023-03-02T07:30:51;99517.31;;;2.78;35.21
70302;BME280;57706;56.326;43.882;2023-03-02T07:33:18;99530.22;;;3.38;36.07
70302;BME280;57706;56.326;43.882;2023-03-02T07:35:44;99519.47;;;7.31;31.79
70302;BME280;57706;56.326;43.882;2023-03-02T07:38:10;99529.66;;;5.06;31.85
70302;BME280;57706;56.326;43.882;2023-03-02T07:40:42;99531.59;;;3.33;34.35
70302;BME280;57706;56.326;43.882;2023-03-02T07:43:08;99525.63;;;8.05;30.22
70302;BME280;57706;56.326;43.882;2023-03-02T07:45:34;99528.56;;;10.73;27.18
70302;BME280;57706;56.326;43.882;2023-03-02T07:48:01;99516.81;;;13.25;23.30
70302;BME280;57706;56.326;43.882;2023-03-02T07:50:27;99514.56;;;15.83;20.50
70302;BME280;57706;56.326;43.882;2023-03-02T07:52:53;99509.84;;;15.09;22.87
70302;BME280;57706;56.326;43.882;2023-03-02T07:55:18;99507.75;;;16.13;20.64
70302;BME280;57706;56.326;43.882;2023-03-02T07:57:44;99504.09;;;17.37;19.03
70302;BME280;57706;56.326;43.882;2023-03-02T08:00:10;99501.78;;;18.24;18.03
70302;BME280;57706;56.326;43.882;2023-03-02T08:02:40;99500.75;;;19.46;16.89
70302;BME280;57706;56.326;43.882;2023-03-02T08:05:07;99494.31;;;20.93;15.58
70302;BME280;57706;56.326;43.882;2023-03-02T08:07:33;99508.31;;;21.81;14.83
70302;BME280;57706;56.326;43.882;2023-03-02T08:09:59;99496.78;;;22.39;14.09
70302;BME280;57706;56.326;43.882;2023-03-02T08:12:26;99490.63;;;24.00;13.75
70302;BME280;57706;56.326;43.882;2023-03-02T08:14:52;99483.78;;;23.62;13.74
70302;BME280;57706;56.326;43.882;2023-03-02T08:17:18;99486.50;;;21.57;14.41
70302;BME280;57706;56.326;43.882;2023-03-02T08:19:45;99493.25;;;17.26;18.15
70302;BME280;57706;56.326;43.882;2023-03-02T08:22:11;99492.06;;;13.59;21.01
70302;BME280;57706;56.326;43.882;2023-03-02T08:24:37;99502.69;;;10.92;24.87
70302;BME280;57706;56.326;43.882;2023-03-02T08:27:04;99499.13;;;8.88;27.63
70302;BME280;57706;56.326;43.882;2023-03-02T08:29:31;99505.06;;;6.94;30.22
70302;BME280;57706;56.326;43.882;2023-03-02T08:31:57;99503.06;;;5.57;32.59
70302;BME280;57706;56.326;43.882;2023-03-02T08:34:23;99508.84;;;5.06;34.50
70302;BME280;57706;56.326;43.882;2023-03-02T08:36:50;99516.59;;;4.41;36.53
70302;BME280;57706;56.326;43.882;2023-03-02T08:39:15;99519.78;;;4.63;36.83
70302;BME280;57706;56.326;43.882;2023-03-02T08:41:41;99499.19;;;6.05;33.59
70302;BME280;57706;56.326;43.882;2023-03-02T08:44:07;99502.72;;;5.15;34.99
70302;BME280;57706;56.326;43.882;2023-03-02T08:46:33;99504.34;;;4.52;35.58
70302;BME280;57706;56.326;43.882;2023-03-02T08:48:59;99502.06;;;3.43;37.86
70302;BME280;57706;56.326;43.882;2023-03-02T08:51:27;99503.56;;;2.46;39.97
70302;BME280;57706;56.326;43.882;2023-03-02T08:53:54;99512.66;;;1.57;43.15
70302;BME280;57706;56.326;43.882;2023-03-02T08:56:30;99509.22;;;1.02;45.24
70302;BME280;57706;56.326;43.882;2023-03-02T08:59:02;99508.84;;;6.48;36.34
70302;BME280;57706;56.326;43.882;2023-03-02T09:01:31;99499.06;;;10.93;28.67
70302;BME280;57706;56.326;43.882;2023-03-02T09:03:58;99487.63;;;15.43;23.43
70302;BME280;57706;56.326;43.882;2023-03-02T09:06:26;99484.97;;;16.43;21.20
70302;BME280;57706;56.326;43.882;2023-03-02T09:08:52;99487.38;;;18.49;18.76
70302;BME280;57706;56.326;43.882;2023-03-02T09:11:18;99482.94;;;16.75;19.96
70302;BME280;57706;56.326;43.882;2023-03-02T09:13:44;99474.88;;;18.78;19.02
70302;BME280;57706;56.326;43.882;2023-03-02T09:16:10;99473.72;;;19.20;17.21
70302;BME280;57706;56.326;43.882;2023-03-02T09:18:37;99474.38;;;21.87;16.46
70302;BME280;57706;56.326;43.882;2023-03-02T09:21:03;99471.06;;;17.80;18.19
70302;BME280;57706;56.326;43.882;2023-03-02T09:23:29;99469.63;;;14.16;21.58
70302;BME280;57706;56.326;43.882;2023-03-02T09:25:55;99468.63;;;14.56;20.80
70302;BME280;57706;56.326;43.882;2023-03-02T09:28:21;99466.31;;;14.27;21.17
70302;BME280;57706;56.326;43.882;2023-03-02T09:30:51;99457.06;;;12.76;22.17
70302;BME280;57706;56.326;43.882;2023-03-02T09:33:18;99463.31;;;12.55;23.17
70302;BME280;57706;56.326;43.882;2023-03-02T09:35:44;99470.63;;;9.70;26.35
70302;BME280;57706;56.326;43.882;2023-03-02T09:38:13;99465.53;;;8.91;27.44
70302;BME280;57706;56.326;43.882;2023-03-02T09:43:23;99474.28;;;6.63;31.00
70302;BME280;57706;56.326;43.882;2023-03-02T09:54:31;99472.59;;;6.02;31.06
70302;BME280;57706;56.326;43.882;2023-03-02T09:56:57;99472.59;;;8.19;29.06
70302;BME280;57706;56.326;43.882;2023-03-02T09:59:28;99478.63;;;8.68;28.51
70302;BME280;57706;56.326;43.882;2023-03-02T10:02:03;99479.75;;;7.19;28.80
70302;BME280;57706;56.326;43.882;2023-03-02T10:04:41;99465.56;;;10.13;25.94
70302;BME280;57706;56.326;43.882;2023-03-02T10:07:13;99480.44;;;12.93;21.84
70302;BME280;57706;56.326;43.882;2023-03-02T10:09:41;99485.41;;;10.83;23.69
70302;BME280;57706;56.326;43.882;2023-03-02T10:12:39;99485.22;;;12.14;21.50
70302;BME280;57706;56.326;43.882;2023-03-02T10:15:22;99487.13;;;15.96;18.10
70302;BME280;57706;56.326;43.882;2023-03-02T10:18:14;99483.72;;;19.87;14.78
70302;BME280;57706;56.326;43.882;2023-03-02T10:23:35;99482.81;;;18.61;14.57
70302;BME280;57706;56.326;43.882;2023-03-02T10:28:52;99483.13;;;21.34;13.28
70302;BME280;57706;56.326;43.882;2023-03-02T10:31:31;99481.63;;;21.49;12.26
70302;BME280;57706;56.326;43.882;2023-03-02T10:33:57;99470.75;;;22.19;12.84
70302;BME280;57706;56.326;43.882;2023-03-02T10:36:34;99470.38;;;22.64;12.33
70302;BME280;57706;56.326;43.882;2023-03-02T10:39:05;99470.81;;;23.96;11.39
70302;BME280;57706;56.326;43.882;2023-03-02T10:41:43;99461.00;;;24.26;11.58
70302;BME280;57706;56.326;43.882;2023-03-02T10:44:23;99469.88;;;21.98;12.18
70302;BME280;57706;56.326;43.882;2023-03-02T10:46:51;99468.94;;;22.35;12.28
70302;BME280;57706;56.326;43.882;2023-03-02T10:49:33;99465.41;;;16.74;15.52
70302;BME280;57706;56.326;43.882;2023-03-02T10:52:11;99455.19;;;15.22;15.51
70302;BME280;57706;56.326;43.882;2023-03-02T10:54:38;99469.06;;;13.94;16.70
70302;BME280;57706;56.326;43.882;2023-03-02T10:59:50;99466.25;;;12.25;18.49
70302;BME280;57706;56.326;43.882;2023-03-02T11:02:25;99459.41;;;10.36;19.92
70302;BME280;57706;56.326;43.882;2023-03-02T11:04:57;99463.16;;;11.86;19.74
70302;BME280;57706;56.326;43.882;2023-03-02T11:07:26;99452.66;;;13.71;17.82
70302;BME280;57706;56.326;43.882;2023-03-02T11:10:04;99451.22;;;11.83;18.93
70302;BME280;57706;56.326;43.882;2023-03-02T11:12:31;99454.91;;;13.20;18.26
70302;BME280;57706;56.326;43.882;2023-03-02T11:17:39;99456.22;;;11.43;19.31
70302;BME280;57706;56.326;43.882;2023-03-02T11:20:16;99462.06;;;9.38;21.16
70302;BME280;57706;56.326;43.882;2023-03-02T11:23:20;99477.09;;;8.34;22.86
70302;BME280;57706;56.326;43.882;2023-03-02T11:25:54;99478.59;;;9.61;22.10
70302;BME280;57706;56.326;43.882;2023-03-02T11:28:29;99475.88;;;12.53;19.04
70302;BME280;57706;56.326;43.882;2023-03-02T11:30:59;99473.91;;;11.84;19.50
70302;BME280;57706;56.326;43.882;2023-03-02T11:34:01;99476.97;;;10.21;21.39
70302;BME280;57706;56.326;43.882;2023-03-02T11:36:43;99475.56;;;9.34;21.94
70302;BME280;57706;56.326;43.882;2023-03-02T11:39:17;99479.03;;;8.00;23.58
70302;BME280;57706;56.326;43.882;2023-03-02T11:41:45;99475.00;;;6.89;24.96
70302;BME280;57706;56.326;43.882;2023-03-02T11:44:18;99483.78;;;5.49;26.75
70302;BME280;57706;56.326;43.882;2023-03-02T11:46:47;99481.59;;;4.26;28.68
70302;BME280;57706;56.326;43.882;2023-03-02T11:49:58;99488.94;;;4.03;29.50
70302;BME280;57706;56.326;43.882;2023-03-02T11:52:21;99488.31;;;3.91;30.39
70302;BME280;57706;56.326;43.882;2023-03-02T11:54:57;99480.28;;;3.74;30.04
70302;BME280;57706;56.326;43.882;2023-03-02T11:57:32;99473.63;;;3.02;31.25
70302;BME280;57706;56.326;43.882;2023-03-02T12:00:00;99481.00;;;4.42;29.95
70302;BME280;57706;56.326;43.882;2023-03-02T12:02:38;99480.59;;;4.09;30.14
70302;BME280;57706;56.326;43.882;2023-03-02T12:05:07;99480.72;;;3.60;31.18
70302;BME280;57706;56.326;43.882;2023-03-02T12:08:29;99480.44;;;3.43;31.63
70302;BME280;57706;56.326;43.882;2023-03-02T12:13:36;99482.38;;;3.41;31.69
70302;BME280;57706;56.326;43.882;2023-03-02T12:16:49;99484.69;;;3.44;31.72
70302;BME280;57706;56.326;43.882;2023-03-02T12:18:51;99485.13;;;3.29;31.96
70302;BME280;57706;56.326;43.882;2023-03-02T12:21:22;99489.47;;;3.58;31.67
70302;BME280;57706;56.326;43.882;2023-03-02T12:26:24;99478.94;;;5.73;29.56
70302;BME280;57706;56.326;43.882;2023-03-02T12:31:54;99476.53;;;6.49;27.88
70302;BME280;57706;56.326;43.882;2023-03-02T12:36:58;99482.69;;;5.78;28.39
70302;BME280;57706;56.326;43.882;2023-03-02T12:39:43;99484.38;;;5.43;29.18
70302;BME280;57706;56.326;43.882;2023-03-02T12:45:48;99479.66;;;3.42;32.73
70302;BME280;57706;56.326;43.882;2023-03-02T12:51:04;99482.16;;;1.60;36.34
70302;BME280;57706;56.326;43.882;2023-03-02T12:53:30;99484.81;;;0.84;39.96
70302;BME280;57706;56.326;43.882;2023-03-02T12:55:56;99487.47;;;0.49;41.39
70302;BME280;57706;56.326;43.882;2023-03-02T12:58:24;99481.38;;;0.39;42.94
70302;BME280;57706;56.326;43.882;2023-03-02T13:00:55;99486.19;;;-0.13;46.43
70302;BME280;57706;56.326;43.882;2023-03-02T13:03:21;99485.72;;;-0.07;46.95
70302;BME280;57706;56.326;43.882;2023-03-02T13:05:47;99493.13;;;0.09;46.65
70302;BME280;57706;56.326;43.882;2023-03-02T13:08:17;99489.81;;;-0.05;47.12
70302;BME280;57706;56.326;43.882;2023-03-02T13:10:51;99488.66;;;0.11;46.35
70302;BME280;57706;56.326;43.882;2023-03-02T13:13:43;99484.09;;;0.03;46.05
70302;BME280;57706;56.326;43.882;2023-03-02T13:16:22;99488.19;;;0.06;46.34
70302;BME280;57706;56.326;43.882;2023-03-02T13:18:52;99481.59;;;0.02;45.69
70302;BME280;57706;56.326;43.882;2023-03-02T13:21:38;99482.53;;;0.12;45.25
70302;BME280;57706;56.326;43.882;2023-03-02T13:24:27;99482.19;;;-0.06;46.08
70302;BME280;57706;56.326;43.882;2023-03-02T13:26:55;99476.78;;;-0.03;45.43
70302;BME280;57706;56.326;43.882;2023-03-02T13:29:25;99468.44;;;-0.18;44.78
70302;BME280;57706;56.326;43.882;2023-03-02T13:31:53;99467.44;;;-0.51;43.27
70302;BME280;57706;56.326;43.882;2023-03-02T13:34:21;99469.34;;;-0.42;42.69
70302;BME280;57706;56.326;43.882;2023-03-02T13:36:48;99471.47;;;-0.36;42.62
70302;BME280;57706;56.326;43.882;2023-03-02T13:39:22;99466.75;;;-0.53;42.49
70302;BME280;57706;56.326;43.882;2023-03-02T13:42:01;99459.88;;;-0.66;42.80
70302;BME280;57706;56.326;43.882;2023-03-02T13:44:33;99458.25;;;-0.67;43.14